createdAt,value
2022-07-30T00:00:25.168Z,5.28
2022-07-30T00:02:53.111Z,5.22
2022-07-30T00:05:20.375Z,5.75
2022-07-30T00:07:47.568Z,5.57
2022-07-30T00:10:14.698Z,5.63
2022-07-30T00:12:41.830Z,5.30
2022-07-30T00:15:09.295Z,6.18
2022-07-30T00:17:36.481Z,6.07
2022-07-30T00:20:03.808Z,5.95
2022-07-30T00:22:31.569Z,5.32
2022-07-30T00:24:59.105Z,5.57
2022-07-30T00:27:26.834Z,5.50
2022-07-30T00:29:53.948Z,6.05
2022-07-30T00:32:21.373Z,5.93
2022-07-30T00:34:48.493Z,5.90
2022-07-30T00:37:15.635Z,6.15
2022-07-30T00:39:42.800Z,5.78
2022-07-30T00:42:09.959Z,5.78
2022-07-30T00:44:37.116Z,5.78
2022-07-30T00:47:08.630Z,6.32
2022-07-30T00:49:35.787Z,5.97
2022-07-30T00:52:02.921Z,5.38
2022-07-30T00:54:30.126Z,5.78
2022-07-30T00:56:57.442Z,5.60
2022-07-30T00:59:24.714Z,5.25
2022-07-30T01:01:51.929Z,5.80
2022-07-30T01:04:19.134Z,5.68
2022-07-30T01:06:46.436Z,5.28
2022-07-30T01:09:13.634Z,5.30
2022-07-30T01:11:41.824Z,5.63
2022-07-30T01:14:09.506Z,5.18
2022-07-30T01:16:37.980Z,5.35
2022-07-30T01:19:25.179Z,5.20
2022-07-30T01:21:56.803Z,5.10
2022-07-30T01:24:32.135Z,5.45
2022-07-30T01:26:59.728Z,5.05
2022-07-30T01:29:28.108Z,5.30
2022-07-30T01:31:59.508Z,5.30
2022-07-30T01:34:29.737Z,5.43
2022-07-30T01:36:57.890Z,5.22
2022-07-30T01:39:26.598Z,5.25
2022-07-30T01:41:55.123Z,4.80
2022-07-30T01:44:24.235Z,6.10
2022-07-30T01:46:51.816Z,5.45
2022-07-30T01:49:20.610Z,5.32
2022-07-30T01:51:48.414Z,5.55
2022-07-30T01:54:17.428Z,4.93
2022-07-30T01:56:45.261Z,5.18
2022-07-30T01:59:13.544Z,5.60
2022-07-30T02:01:40.744Z,5.25
2022-07-30T02:04:07.918Z,5.10
2022-07-30T02:06:43.015Z,5.00
2022-07-30T02:09:11.583Z,5.07
2022-07-30T02:12:00.669Z,4.53
2022-07-30T02:14:34.796Z,4.78
2022-07-30T02:17:03.710Z,4.93
2022-07-30T02:19:34.584Z,5.03
2022-07-30T02:22:06.874Z,4.53
2022-07-30T02:24:37.294Z,4.95
2022-07-30T02:27:07.436Z,4.88
2022-07-30T02:29:36.276Z,4.97
2022-07-30T02:32:06.679Z,4.70
2022-07-30T02:34:36.711Z,5.32
2022-07-30T02:37:04.939Z,4.55
2022-07-30T02:39:32.882Z,4.82
2022-07-30T02:42:00.167Z,5.03
2022-07-30T02:44:29.779Z,5.00
2022-07-30T02:46:58.623Z,4.78
2022-07-30T02:49:27.655Z,4.88
2022-07-30T02:51:55.201Z,5.10
2022-07-30T02:54:23.573Z,5.90
2022-07-30T02:56:51.404Z,5.80
2022-07-30T02:59:20.513Z,6.40
2022-07-30T03:01:47.989Z,5.97
2022-07-30T03:04:16.841Z,5.72
2022-07-30T03:06:44.143Z,6.50
2022-07-30T03:09:11.392Z,6.18
2022-07-30T03:14:11.368Z,6.07
2022-07-30T03:16:39.226Z,6.15
2022-07-30T03:19:09.535Z,6.63
2022-07-30T03:21:37.999Z,6.70
2022-07-30T03:24:07.154Z,6.57
2022-07-30T03:26:36.380Z,7.07
2022-07-30T03:29:03.728Z,6.32
2022-07-30T03:31:36.433Z,6.50
2022-07-30T03:34:06.438Z,6.60
2022-07-30T03:36:34.070Z,6.13
2022-07-30T03:39:02.144Z,5.72
2022-07-30T03:41:29.424Z,5.97
2022-07-30T03:43:56.980Z,6.03
2022-07-30T03:46:24.763Z,6.10
2022-07-30T03:48:53.143Z,5.95
2022-07-30T03:51:20.426Z,5.80
2022-07-30T03:53:47.824Z,5.45
2022-07-30T03:56:16.102Z,5.88
2022-07-30T03:58:43.247Z,5.80
2022-07-30T04:01:10.405Z,6.00
2022-07-30T04:03:37.739Z,5.38
2022-07-30T04:06:05.058Z,5.57
2022-07-30T04:08:32.219Z,6.05
2022-07-30T04:10:59.371Z,6.18
2022-07-30T04:13:26.491Z,6.82
2022-07-30T04:16:06.037Z,6.32
2022-07-30T04:18:52.000Z,6.57
2022-07-30T04:21:21.407Z,6.88
2022-07-30T04:24:02.254Z,6.95
2022-07-30T04:26:32.879Z,7.20
2022-07-30T04:29:00.635Z,6.45
2022-07-30T04:31:28.641Z,6.30
2022-07-30T04:33:58.898Z,7.15
2022-07-30T04:36:33.424Z,7.68
2022-07-30T04:39:00.948Z,6.57
2022-07-30T04:41:28.110Z,6.35
2022-07-30T04:43:55.239Z,6.95
2022-07-30T04:46:23.277Z,6.25
2022-07-30T04:48:52.223Z,6.55
2022-07-30T04:51:23.583Z,6.03
2022-07-30T04:53:51.665Z,5.45
2022-07-30T04:56:19.154Z,6.25
2022-07-30T04:58:46.462Z,5.50
2022-07-30T05:01:16.546Z,5.55
2022-07-30T05:03:44.155Z,5.75
2022-07-30T05:06:12.531Z,5.90
2022-07-30T05:08:40.258Z,5.85
2022-07-30T05:11:07.411Z,5.10
2022-07-30T05:13:38.359Z,5.30
2022-07-30T05:16:06.178Z,5.68
2022-07-30T05:18:33.374Z,5.65
2022-07-30T05:21:00.541Z,5.65
2022-07-30T05:23:27.679Z,4.95
2022-07-30T05:25:54.838Z,4.85
2022-07-30T05:28:22.419Z,4.63
2022-07-30T05:30:49.861Z,4.80
2022-07-30T05:33:17.101Z,4.80
2022-07-30T05:35:44.287Z,4.95
2022-07-30T05:38:11.430Z,4.85
2022-07-30T05:40:38.617Z,4.93
2022-07-30T05:43:05.759Z,4.80
2022-07-30T05:45:33.067Z,4.70
2022-07-30T05:48:00.195Z,4.25
2022-07-30T05:50:27.330Z,4.25
2022-07-30T05:52:56.010Z,4.63
2022-07-30T05:55:23.201Z,4.78
2022-07-30T05:57:50.413Z,4.38
2022-07-30T06:00:17.874Z,4.35
2022-07-30T06:02:45.222Z,4.15
2022-07-30T06:05:12.348Z,4.30
2022-07-30T06:07:39.539Z,4.45
2022-07-30T06:10:06.854Z,4.20
2022-07-30T06:12:34.115Z,4.40
2022-07-30T06:15:01.283Z,3.72
2022-07-30T06:17:28.431Z,4.15
2022-07-30T06:19:55.619Z,3.50
2022-07-30T06:22:25.977Z,4.50
2022-07-30T06:24:53.419Z,4.35
2022-07-30T06:27:20.855Z,4.38
2022-07-30T06:29:47.980Z,4.20
2022-07-30T06:32:15.191Z,4.30
2022-07-30T06:34:42.325Z,4.05
2022-07-30T06:37:09.451Z,4.15
2022-07-30T06:39:57.613Z,4.20
2022-07-30T06:42:23.723Z,3.90
2022-07-30T06:44:50.957Z,4.60
2022-07-30T06:47:26.168Z,4.20
2022-07-30T06:49:53.940Z,4.03
2022-07-30T06:52:21.076Z,4.72
2022-07-30T06:54:48.427Z,5.22
2022-07-30T06:57:15.879Z,5.88
2022-07-30T06:59:56.113Z,5.03
2022-07-30T07:02:24.551Z,4.85
2022-07-30T07:04:51.667Z,4.55
2022-07-30T07:07:37.066Z,5.30
2022-07-30T07:10:06.259Z,5.60
2022-07-30T07:12:33.415Z,4.70
2022-07-30T07:15:00.522Z,5.47
2022-07-30T07:17:27.688Z,4.97
2022-07-30T07:20:00.737Z,5.07
2022-07-30T07:22:29.725Z,6.20
2022-07-30T07:24:56.879Z,5.10
2022-07-30T07:27:24.047Z,5.78
2022-07-30T07:30:05.255Z,5.57
2022-07-30T07:32:33.406Z,5.45
2022-07-30T07:35:00.534Z,5.10
2022-07-30T07:37:27.761Z,5.75
2022-07-30T07:39:54.952Z,4.60
2022-07-30T07:42:22.098Z,5.53
2022-07-30T07:44:49.400Z,5.75
2022-07-30T07:47:16.570Z,5.20
2022-07-30T07:49:43.785Z,5.28
2022-07-30T07:52:10.957Z,4.72
2022-07-30T07:54:38.536Z,5.53
2022-07-30T07:57:07.998Z,5.00
2022-07-30T07:59:40.604Z,4.72
2022-07-30T08:02:08.840Z,5.28
2022-07-30T08:04:36.494Z,4.80
2022-07-30T08:07:04.534Z,4.82
2022-07-30T08:09:40.908Z,4.38
2022-07-30T08:12:12.402Z,5.20
2022-07-30T08:14:39.582Z,4.85
2022-07-30T08:17:07.291Z,4.30
2022-07-30T08:19:35.070Z,5.15
2022-07-30T08:22:02.202Z,4.65
2022-07-30T08:24:29.402Z,4.82
2022-07-30T08:26:56.959Z,4.70
2022-07-30T08:29:24.093Z,4.82
2022-07-30T08:31:51.323Z,5.00
2022-07-30T08:34:20.296Z,4.53
2022-07-30T08:36:52.827Z,3.90
2022-07-30T08:39:20.001Z,4.20
2022-07-30T08:41:47.525Z,4.78
2022-07-30T08:44:17.383Z,4.30
2022-07-30T08:46:47.240Z,4.40
2022-07-30T08:49:15.536Z,6.45
2022-07-30T08:51:43.321Z,4.50
2022-07-30T08:54:10.619Z,4.43
2022-07-30T08:56:38.331Z,4.20
2022-07-30T08:59:05.524Z,3.72
2022-07-30T09:01:32.697Z,4.15
2022-07-30T09:03:59.972Z,4.05
2022-07-30T09:06:27.202Z,3.85
2022-07-30T09:08:54.641Z,3.80
2022-07-30T09:11:21.882Z,3.55
2022-07-30T09:13:50.825Z,3.63
2022-07-30T09:16:20.941Z,3.40
2022-07-30T09:18:48.315Z,3.20
2022-07-30T09:21:20.835Z,2.80
2022-07-30T09:26:18.339Z,2.92
2022-07-30T09:28:45.470Z,3.55
2022-07-30T09:31:12.660Z,3.28
2022-07-30T09:33:41.643Z,3.05
2022-07-30T09:36:12.507Z,2.63
2022-07-30T09:38:47.813Z,3.00
2022-07-30T09:41:37.293Z,3.40
2022-07-30T09:44:04.616Z,2.97
2022-07-30T09:46:47.442Z,3.17
2022-07-30T09:49:18.637Z,3.40
2022-07-30T09:51:54.405Z,2.90
2022-07-30T09:54:23.981Z,3.30
2022-07-30T09:59:54.856Z,3.33
2022-07-30T10:02:22.484Z,3.28
2022-07-30T10:04:53.803Z,4.03
2022-07-30T10:07:25.727Z,2.63
2022-07-30T10:09:54.191Z,3.70
2022-07-30T10:12:23.975Z,2.53
2022-07-30T10:14:53.820Z,3.03
2022-07-30T10:17:21.527Z,2.72
2022-07-30T10:19:49.140Z,2.63
2022-07-30T10:22:17.051Z,2.58
2022-07-30T10:24:45.166Z,2.40
2022-07-30T10:27:12.949Z,3.28
2022-07-30T10:29:42.532Z,2.42
2022-07-30T10:32:10.622Z,2.78
2022-07-30T10:34:42.685Z,2.60
2022-07-30T10:37:12.296Z,2.75
2022-07-30T10:39:54.522Z,2.83
2022-07-30T10:42:40.406Z,2.38
2022-07-30T10:45:23.015Z,2.58
2022-07-30T10:47:52.164Z,2.42
2022-07-30T10:50:22.302Z,2.40
2022-07-30T10:52:53.817Z,2.67
2022-07-30T10:55:37.432Z,2.38
2022-07-30T10:58:06.726Z,3.03
2022-07-30T11:00:54.907Z,2.55
2022-07-30T11:03:41.711Z,2.30
2022-07-30T11:06:24.590Z,2.30
2022-07-30T11:08:52.317Z,2.70
2022-07-30T11:11:37.031Z,2.10
2022-07-30T11:14:12.931Z,2.35
2022-07-30T11:16:40.203Z,1.90
2022-07-30T11:22:15.233Z,2.70
2022-07-30T11:24:43.531Z,2.10
2022-07-30T11:27:31.277Z,2.30
2022-07-30T11:30:03.798Z,2.30
2022-07-30T11:32:32.350Z,2.60
2022-07-30T11:35:12.870Z,2.13
2022-07-30T11:37:58.678Z,2.25
2022-07-30T11:40:36.160Z,2.17
2022-07-30T11:43:17.382Z,2.10
2022-07-30T11:45:45.297Z,2.45
2022-07-30T11:48:13.423Z,2.33
2022-07-30T11:50:41.101Z,2.60
2022-07-30T11:53:14.765Z,2.28
2022-07-30T11:55:43.578Z,2.50
2022-07-30T11:58:11.675Z,2.10
2022-07-30T12:00:40.244Z,2.30
2022-07-30T12:03:11.636Z,2.60
2022-07-30T12:05:39.420Z,2.47
2022-07-30T12:08:06.962Z,2.50
2022-07-30T12:10:36.121Z,2.10
2022-07-30T12:13:12.350Z,2.10
2022-07-30T12:15:41.094Z,1.80
2022-07-30T12:18:25.818Z,1.58
2022-07-30T12:20:54.753Z,2.20
2022-07-30T12:23:25.085Z,2.13
2022-07-30T12:25:52.469Z,2.38
2022-07-30T12:28:26.826Z,2.40
2022-07-30T12:30:54.623Z,2.10
2022-07-30T12:33:22.976Z,2.42
2022-07-30T12:35:54.304Z,2.00
2022-07-30T12:38:22.168Z,2.05
2022-07-30T12:40:53.157Z,2.30
2022-07-30T12:43:40.248Z,1.80
2022-07-30T12:46:09.761Z,1.88
2022-07-30T12:48:49.191Z,2.20
2022-07-30T12:51:17.160Z,2.17
2022-07-30T12:53:44.333Z,2.10
2022-07-30T12:56:15.232Z,1.60
2022-07-30T12:58:43.078Z,2.10
2022-07-30T13:01:13.374Z,1.40
2022-07-30T13:03:40.912Z,1.50
2022-07-30T13:06:13.839Z,1.70
2022-07-30T13:09:01.271Z,1.67
2022-07-30T13:11:38.405Z,1.42
2022-07-30T13:14:05.896Z,1.50
2022-07-30T13:16:34.016Z,1.60
2022-07-30T13:19:01.597Z,1.77
2022-07-30T13:21:28.771Z,1.92
2022-07-30T13:23:55.891Z,2.00
2022-07-30T13:26:23.252Z,2.05
2022-07-30T13:28:50.534Z,1.60
2022-07-30T13:31:18.328Z,1.30
2022-07-30T13:33:45.506Z,1.73
2022-07-30T13:36:12.694Z,1.80
2022-07-30T13:38:39.922Z,1.65
2022-07-30T13:41:07.330Z,1.70
2022-07-30T13:43:34.649Z,1.70
2022-07-30T13:46:03.086Z,1.50
2022-07-30T13:48:30.267Z,1.85
2022-07-30T13:50:57.551Z,2.15
2022-07-30T13:53:24.734Z,2.00
2022-07-30T13:55:51.973Z,1.80
2022-07-30T13:58:19.066Z,1.83
2022-07-30T14:00:47.777Z,1.67
2022-07-30T14:03:15.754Z,1.73
2022-07-30T14:05:42.950Z,1.80
2022-07-30T14:08:10.953Z,2.00
2022-07-30T14:10:39.755Z,1.77
2022-07-30T14:13:07.848Z,1.60
2022-07-30T14:15:35.027Z,1.50
2022-07-30T14:18:02.290Z,2.00
2022-07-30T14:20:29.669Z,2.05
2022-07-30T14:22:58.483Z,1.85
2022-07-30T14:25:26.306Z,2.05
2022-07-30T14:27:53.609Z,1.85
2022-07-30T14:30:20.909Z,1.92
2022-07-30T14:32:48.261Z,1.88
2022-07-30T14:35:15.547Z,2.10
2022-07-30T14:37:42.772Z,1.95
2022-07-30T14:40:11.843Z,1.60
2022-07-30T14:42:42.609Z,1.60
2022-07-30T14:45:10.507Z,1.73
2022-07-30T14:47:37.983Z,1.65
2022-07-30T14:50:05.392Z,1.67
2022-07-30T14:52:34.990Z,1.67
2022-07-30T14:55:03.879Z,1.55
2022-07-30T14:57:31.322Z,1.50
2022-07-30T14:59:58.443Z,1.70
2022-07-30T15:02:25.622Z,1.90
2022-07-30T15:04:52.804Z,2.10
2022-07-30T15:07:19.933Z,1.60
2022-07-30T15:09:47.048Z,1.90
2022-07-30T15:12:23.735Z,1.60
2022-07-30T15:14:54.126Z,1.55
2022-07-30T15:17:21.314Z,1.85
2022-07-30T15:19:50.428Z,1.70
2022-07-30T15:22:19.012Z,1.50
2022-07-30T15:24:46.182Z,1.73
2022-07-30T15:27:13.360Z,1.63
2022-07-30T15:29:40.546Z,1.50
2022-07-30T15:32:07.860Z,2.00
2022-07-30T15:34:35.116Z,1.42
2022-07-30T15:37:02.934Z,1.80
2022-07-30T15:39:32.757Z,1.80
2022-07-30T15:42:01.563Z,1.70
2022-07-30T15:44:29.186Z,1.75
2022-07-30T15:46:56.385Z,1.55
2022-07-30T15:49:23.645Z,1.67
2022-07-30T15:51:51.791Z,1.58
2022-07-30T15:54:23.242Z,1.73
2022-07-30T15:56:54.026Z,1.77
2022-07-30T15:59:21.513Z,1.70
2022-07-30T16:01:49.179Z,1.60
2022-07-30T16:04:18.902Z,1.60
2022-07-30T16:06:47.553Z,2.00
2022-07-30T16:09:14.960Z,1.38
2022-07-30T16:11:42.992Z,1.70
2022-07-30T16:14:10.372Z,1.70
2022-07-30T16:16:37.631Z,1.48
2022-07-30T16:19:04.799Z,1.40
2022-07-30T16:21:31.929Z,1.65
2022-07-30T16:23:59.295Z,1.70
2022-07-30T16:26:26.700Z,1.60
2022-07-30T16:28:53.976Z,1.70
2022-07-30T16:31:21.227Z,1.85
2022-07-30T16:33:48.429Z,1.50
2022-07-30T16:36:16.822Z,1.50
2022-07-30T16:38:44.047Z,1.48
2022-07-30T16:41:13.383Z,1.95
2022-07-30T16:43:40.979Z,1.50
2022-07-30T16:46:08.306Z,1.55
2022-07-30T16:48:35.431Z,1.83
2022-07-30T16:51:02.618Z,1.50
2022-07-30T16:53:29.955Z,1.75
2022-07-30T16:55:58.375Z,1.40
2022-07-30T16:58:30.765Z,1.80
2022-07-30T17:00:58.389Z,1.80
2022-07-30T17:03:25.722Z,1.70
2022-07-30T17:05:53.030Z,1.90
2022-07-30T17:08:24.891Z,1.80
2022-07-30T17:10:52.774Z,1.45
2022-07-30T17:13:20.624Z,1.90
2022-07-30T17:15:47.970Z,1.75
2022-07-30T17:18:15.506Z,1.83
2022-07-30T17:20:42.661Z,1.55
2022-07-30T17:23:09.813Z,1.60
2022-07-30T17:25:36.936Z,1.50
2022-07-30T17:28:04.237Z,1.98
2022-07-30T17:30:31.461Z,1.50
2022-07-30T17:32:58.800Z,1.90
2022-07-30T17:35:26.309Z,1.52
2022-07-30T17:37:53.496Z,1.58
2022-07-30T17:40:30.599Z,1.73
2022-07-30T17:43:08.579Z,1.75
2022-07-30T17:45:36.825Z,1.52
2022-07-30T17:48:05.114Z,1.60
2022-07-30T17:50:32.652Z,1.92
2022-07-30T17:53:00.030Z,1.75
2022-07-30T17:55:31.287Z,1.80
2022-07-30T17:57:58.527Z,1.60
2022-07-30T18:00:25.719Z,1.38
2022-07-30T18:02:52.900Z,1.77
2022-07-30T18:05:20.034Z,2.05
2022-07-30T18:07:47.307Z,1.50
2022-07-30T18:10:14.478Z,1.80
2022-07-30T18:12:48.906Z,1.67
2022-07-30T18:15:17.479Z,1.67
2022-07-30T18:17:45.517Z,1.73
2022-07-30T18:20:12.872Z,1.80
2022-07-30T18:22:40.395Z,2.70
2022-07-30T18:25:08.302Z,1.90
2022-07-30T18:27:46.453Z,1.70
2022-07-30T18:30:13.719Z,1.85
2022-07-30T18:32:40.850Z,1.77
2022-07-30T18:35:13.475Z,2.15
2022-07-30T18:37:42.093Z,1.67
2022-07-30T18:40:10.350Z,1.77
2022-07-30T18:42:37.486Z,1.50
2022-07-30T18:45:04.832Z,1.80
2022-07-30T18:47:31.972Z,1.88
2022-07-30T18:49:59.139Z,2.10
2022-07-30T18:52:26.522Z,1.90
2022-07-30T18:54:53.795Z,2.00
2022-07-30T18:57:21.249Z,1.92
2022-07-30T18:59:48.408Z,2.10
2022-07-30T19:02:15.655Z,2.30
2022-07-30T19:04:43.003Z,2.08
2022-07-30T19:07:10.250Z,2.15
2022-07-30T19:09:37.744Z,2.13
2022-07-30T19:12:05.927Z,1.88
2022-07-30T19:14:33.373Z,2.20
2022-07-30T19:17:00.678Z,2.00
2022-07-30T19:19:27.952Z,1.92
2022-07-30T19:21:58.275Z,2.05
2022-07-30T19:24:27.692Z,2.08
2022-07-30T19:26:55.862Z,2.00
2022-07-30T19:29:23.097Z,2.17
2022-07-30T19:31:50.307Z,1.98
2022-07-30T19:34:17.421Z,1.92
2022-07-30T19:36:44.548Z,2.00
2022-07-30T19:39:15.891Z,1.85
2022-07-30T19:41:50.947Z,2.00
2022-07-30T19:44:18.642Z,1.70
2022-07-30T19:46:46.075Z,2.03
2022-07-30T19:49:13.226Z,2.00
2022-07-30T19:52:17.637Z,2.22
2022-07-30T19:54:27.590Z,2.00
2022-07-30T19:56:54.859Z,1.90
2022-07-30T19:59:43.771Z,2.17
2022-07-30T20:02:09.538Z,2.15
2022-07-30T20:04:37.169Z,2.20
2022-07-30T20:07:04.446Z,2.22
2022-07-30T20:09:31.696Z,2.17
2022-07-30T20:12:00.024Z,2.00
2022-07-30T20:14:30.005Z,2.20
2022-07-30T20:17:01.947Z,1.73
2022-07-30T20:22:17.250Z,2.28
2022-07-30T20:24:44.929Z,2.22
2022-07-30T20:27:35.860Z,2.03
2022-07-30T20:29:59.435Z,2.08
2022-07-30T20:32:26.775Z,2.00
2022-07-30T20:34:53.927Z,2.40
2022-07-30T20:37:22.555Z,2.22
2022-07-30T20:39:50.147Z,1.88
2022-07-30T20:42:17.311Z,2.05
2022-07-30T20:47:38.399Z,2.72
2022-07-30T20:50:10.082Z,2.10
2022-07-30T20:52:40.107Z,2.10
2022-07-30T20:55:12.985Z,2.40
2022-07-30T20:57:56.834Z,2.28
2022-07-30T21:00:29.747Z,2.22
2022-07-30T21:02:56.935Z,1.92
2022-07-30T21:05:27.122Z,2.20
2022-07-30T21:07:54.512Z,2.25
2022-07-30T21:10:23.655Z,2.40
2022-07-30T21:12:52.991Z,2.50
2022-07-30T21:15:24.000Z,2.35
2022-07-30T21:17:51.734Z,2.50
2022-07-30T21:20:27.883Z,2.50
2022-07-30T21:22:55.581Z,2.53
2022-07-30T21:25:23.559Z,2.70
2022-07-30T21:28:00.908Z,2.70
2022-07-30T21:30:30.563Z,2.70
2022-07-30T21:32:57.759Z,2.50
2022-07-30T21:35:25.015Z,2.30
2022-07-30T21:37:59.046Z,2.55
2022-07-30T21:40:27.722Z,2.70
2022-07-30T21:42:56.184Z,3.25
2022-07-30T21:45:23.715Z,2.88
2022-07-30T21:47:54.862Z,3.30
2022-07-30T21:50:22.130Z,2.80
2022-07-30T21:52:50.359Z,3.20
2022-07-30T21:55:18.648Z,2.63
2022-07-30T21:57:48.634Z,2.50
2022-07-30T22:00:22.392Z,2.80
2022-07-30T22:02:53.012Z,3.05
2022-07-30T22:08:09.256Z,2.75
2022-07-30T22:10:37.701Z,2.78
2022-07-30T22:13:08.469Z,2.50
2022-07-30T22:15:35.815Z,2.33
2022-07-30T22:18:02.959Z,2.83
2022-07-30T22:20:31.559Z,2.53
2022-07-30T22:23:00.170Z,2.65
2022-07-30T22:25:39.900Z,2.65
2022-07-30T22:28:11.357Z,2.70
2022-07-30T22:30:38.643Z,3.22
2022-07-30T22:33:18.849Z,2.65
2022-07-30T22:35:49.503Z,2.33
2022-07-30T22:38:17.335Z,2.63
2022-07-30T22:40:46.871Z,2.60
2022-07-30T22:43:15.848Z,2.58
2022-07-30T22:45:48.412Z,2.45
2022-07-30T22:48:17.719Z,2.90
2022-07-30T22:50:48.497Z,2.60
2022-07-30T22:54:03.049Z,2.65
2022-07-30T22:56:07.036Z,2.83
2022-07-30T22:58:41.518Z,2.55
2022-07-30T23:01:11.033Z,2.75
2022-07-30T23:03:38.347Z,2.92
2022-07-30T23:06:05.475Z,2.50
2022-07-30T23:08:33.692Z,2.38
2022-07-30T23:11:00.991Z,2.45
2022-07-30T23:12:17.497Z,1.90
2022-07-30T23:12:18.424Z,2.50
2022-07-30T23:12:28.193Z,2.83
2022-07-30T23:13:28.836Z,2.65
2022-07-30T23:15:56.099Z,2.97
2022-07-30T23:18:23.721Z,2.95
2022-07-30T23:20:50.854Z,2.50
2022-07-30T23:23:18.045Z,2.92
2022-07-30T23:25:45.201Z,3.15
2022-07-30T23:28:12.556Z,3.40
2022-07-30T23:30:39.900Z,3.45
2022-07-30T23:33:07.001Z,3.88
2022-07-30T23:35:34.105Z,3.88
2022-07-30T23:38:01.258Z,3.08
2022-07-30T23:40:28.437Z,3.00
2022-07-30T23:42:55.590Z,3.55
2022-07-30T23:45:22.739Z,2.97
2022-07-30T23:48:00.943Z,3.20
2022-07-30T23:50:30.133Z,3.17
2022-07-30T23:52:57.295Z,3.28
2022-07-30T23:55:24.515Z,3.63
2022-07-30T23:57:51.697Z,3.25
